createdAt,value
2018-06-10T00:01:59.017Z,15.00
2018-06-10T00:04:28.558Z,15.00
2018-06-10T00:06:58.339Z,14.90
2018-06-10T00:09:27.849Z,14.90
2018-06-10T00:11:57.447Z,14.90
2018-06-10T00:14:26.967Z,14.90
2018-06-10T00:16:56.585Z,14.90
2018-06-10T00:19:26.108Z,14.90
2018-06-10T00:21:55.636Z,14.90
2018-06-10T00:24:25.362Z,14.90
2018-06-10T00:26:54.993Z,14.80
2018-06-10T00:29:24.827Z,14.80
2018-06-10T00:31:55.306Z,14.70
2018-06-10T00:34:24.939Z,14.70
2018-06-10T00:36:54.466Z,14.80
2018-06-10T00:39:23.838Z,14.80
2018-06-10T00:41:53.497Z,14.80
2018-06-10T00:44:22.944Z,14.70
2018-06-10T00:46:53.289Z,14.70
2018-06-10T00:49:23.592Z,14.70
2018-06-10T00:51:53.270Z,14.60
2018-06-10T00:54:22.683Z,14.50
2018-06-10T00:56:53.205Z,14.50
2018-06-10T00:59:22.766Z,14.40
2018-06-10T01:01:52.660Z,14.40
2018-06-10T01:04:22.493Z,14.40
2018-06-10T01:06:52.387Z,14.40
2018-06-10T01:09:21.960Z,14.40
2018-06-10T01:11:51.572Z,14.30
2018-06-10T01:14:21.236Z,14.30
2018-06-10T01:16:50.897Z,14.30
2018-06-10T01:19:20.637Z,14.20
2018-06-10T01:24:19.548Z,14.10
2018-06-10T01:26:51.430Z,14.20
2018-06-10T01:29:20.877Z,14.20
2018-06-10T01:31:50.277Z,14.20
2018-06-10T01:34:19.900Z,14.20
2018-06-10T01:36:49.392Z,14.10
2018-06-10T01:39:18.901Z,14.00
2018-06-10T01:41:48.308Z,13.90
2018-06-10T01:44:17.844Z,13.90
2018-06-10T01:46:48.882Z,13.90
2018-06-10T01:49:18.595Z,13.90
2018-06-10T01:51:48.046Z,13.90
2018-06-10T01:54:17.445Z,13.90
2018-06-10T01:56:47.002Z,14.00
2018-06-10T01:59:16.592Z,14.10
2018-06-10T02:01:46.136Z,14.20
2018-06-10T02:04:15.700Z,14.10
2018-06-10T02:06:45.206Z,14.10
2018-06-10T02:09:14.795Z,14.10
2018-06-10T02:11:44.351Z,14.00
2018-06-10T02:14:14.054Z,14.00
2018-06-10T02:16:43.652Z,13.90
2018-06-10T02:19:13.173Z,13.90
2018-06-10T02:21:42.867Z,13.90
2018-06-10T02:24:12.317Z,13.90
2018-06-10T02:26:42.239Z,13.90
2018-06-10T02:29:12.024Z,13.90
2018-06-10T02:31:41.631Z,13.90
2018-06-10T02:34:11.056Z,13.90
2018-06-10T02:36:40.567Z,13.90
2018-06-10T02:39:10.024Z,14.00
2018-06-10T02:41:39.802Z,14.00
2018-06-10T02:44:09.378Z,14.10
2018-06-10T02:46:39.003Z,14.00
2018-06-10T02:49:08.477Z,14.00
2018-06-10T02:51:39.021Z,14.00
2018-06-10T02:54:08.530Z,14.00
2018-06-10T02:56:37.813Z,14.00
2018-06-10T02:59:07.311Z,14.10
2018-06-10T03:01:36.855Z,14.30
2018-06-10T03:04:06.620Z,14.30
2018-06-10T03:06:35.802Z,14.20
2018-06-10T03:09:06.422Z,14.10
2018-06-10T03:11:35.799Z,14.10
2018-06-10T03:14:05.087Z,14.10
2018-06-10T03:16:34.564Z,14.10
2018-06-10T03:19:05.109Z,14.20
2018-06-10T03:21:35.029Z,14.20
2018-06-10T03:24:04.473Z,14.40
2018-06-10T03:26:33.942Z,14.50
2018-06-10T03:29:03.521Z,14.40
2018-06-10T03:31:33.011Z,14.50
2018-06-10T03:34:02.519Z,14.60
2018-06-10T03:36:31.831Z,14.70
2018-06-10T03:39:01.514Z,14.70
2018-06-10T03:41:30.822Z,14.70
2018-06-10T03:44:00.417Z,14.70
2018-06-10T03:46:30.223Z,14.80
2018-06-10T03:49:00.023Z,14.90
2018-06-10T03:51:29.622Z,15.00
2018-06-10T03:53:59.005Z,15.10
2018-06-10T03:56:28.528Z,15.10
2018-06-10T03:58:58.244Z,15.00
2018-06-10T04:01:27.593Z,15.10
2018-06-10T04:03:57.295Z,15.20
2018-06-10T04:08:55.502Z,15.50
2018-06-10T04:11:24.980Z,15.70
2018-06-10T04:16:23.242Z,15.80
2018-06-10T04:18:52.681Z,16.00
2018-06-10T04:23:51.044Z,16.40
2018-06-10T04:26:20.509Z,16.60
2018-06-10T04:28:49.853Z,17.10
2018-06-10T04:31:19.642Z,17.70
2018-06-10T04:33:49.274Z,18.40
2018-06-10T04:36:18.696Z,19.00
2018-06-10T04:38:48.010Z,19.40
2018-06-10T04:41:17.961Z,19.90
2018-06-10T04:43:47.402Z,19.80
2018-06-10T04:46:16.793Z,19.40
2018-06-10T04:48:46.216Z,19.50
2018-06-10T04:51:15.700Z,20.00
2018-06-10T04:53:45.095Z,20.70
2018-06-10T04:56:14.352Z,21.10
2018-06-10T04:58:44.107Z,21.60
2018-06-10T05:01:13.425Z,22.20
2018-06-10T05:03:42.895Z,23.00
2018-06-10T05:06:12.499Z,23.80
2018-06-10T05:08:41.860Z,24.70
2018-06-10T05:11:11.266Z,25.30
2018-06-10T05:13:40.739Z,25.50
2018-06-10T05:16:10.165Z,25.90
2018-06-10T05:18:39.687Z,26.00
2018-06-10T05:21:09.364Z,26.60
2018-06-10T05:23:38.602Z,27.50
2018-06-10T05:26:08.335Z,28.20
2018-06-10T05:28:37.734Z,28.20
2018-06-10T05:31:07.274Z,28.30
2018-06-10T05:33:36.740Z,28.50
2018-06-10T05:36:06.287Z,27.60
2018-06-10T05:38:35.642Z,28.30
2018-06-10T05:41:04.775Z,26.40
2018-06-10T05:43:34.129Z,27.20
2018-06-10T05:46:03.432Z,28.00
2018-06-10T05:48:32.762Z,27.80
2018-06-10T05:51:02.251Z,26.80
2018-06-10T05:56:22.224Z,27.90
2018-06-10T05:58:51.500Z,27.70
2018-06-10T06:01:21.053Z,27.40
2018-06-10T06:03:50.817Z,28.40
2018-06-10T06:06:20.260Z,29.30
2018-06-10T06:08:49.746Z,29.70
2018-06-10T06:11:19.195Z,29.50
2018-06-10T06:13:50.826Z,29.30
2018-06-10T06:16:20.326Z,29.70
2018-06-10T06:18:50.691Z,29.40
2018-06-10T06:21:20.223Z,29.30
2018-06-10T06:23:50.367Z,28.90
2018-06-10T06:26:19.750Z,28.50
2018-06-10T06:28:49.127Z,28.80
2018-06-10T06:31:18.732Z,29.10
2018-06-10T06:33:48.404Z,29.80
2018-06-10T06:36:18.089Z,29.00
2018-06-10T06:38:47.775Z,28.50
2018-06-10T06:41:17.250Z,28.90
2018-06-10T06:43:46.870Z,29.50
2018-06-10T06:46:16.235Z,30.00
2018-06-10T06:48:45.799Z,29.80
2018-06-10T06:51:15.299Z,29.60
2018-06-10T06:53:44.770Z,30.10
2018-06-10T06:56:14.256Z,30.40
2018-06-10T06:58:43.729Z,27.30
2018-06-10T07:01:13.207Z,25.60
2018-06-10T07:03:42.771Z,26.40
2018-06-10T07:06:12.209Z,27.50
2018-06-10T07:08:41.681Z,28.10
2018-06-10T07:11:11.148Z,27.60
2018-06-10T07:13:40.508Z,27.20
2018-06-10T07:18:38.771Z,24.30
2018-06-10T07:21:08.508Z,23.50
2018-06-10T07:23:38.070Z,24.30
2018-06-10T07:26:11.892Z,26.30
2018-06-10T07:28:41.569Z,26.90
2018-06-10T07:31:10.974Z,28.50
2018-06-10T07:33:40.339Z,28.40
2018-06-10T07:36:09.755Z,30.90
2018-06-10T07:38:39.303Z,31.60
2018-06-10T07:41:08.770Z,27.20
2018-06-10T07:43:38.221Z,26.10
2018-06-10T07:46:07.634Z,26.90
2018-06-10T07:51:16.463Z,26.20
2018-06-10T07:53:45.967Z,27.30
2018-06-10T07:56:15.489Z,28.30
2018-06-10T07:58:44.927Z,29.10
2018-06-10T08:01:14.398Z,28.90
2018-06-10T08:03:43.772Z,27.20
2018-06-10T08:06:13.317Z,27.70
2018-06-10T08:08:42.537Z,27.40
2018-06-10T08:11:12.099Z,26.60
2018-06-10T08:13:41.556Z,27.70
2018-06-10T08:16:10.874Z,29.00
2018-06-10T08:18:40.505Z,30.20
2018-06-10T08:21:10.338Z,29.70
2018-06-10T08:23:39.734Z,30.90
2018-06-10T08:26:09.229Z,30.10
2018-06-10T08:28:38.472Z,28.20
2018-06-10T08:31:08.108Z,29.50
2018-06-10T08:33:37.981Z,30.00
2018-06-10T08:36:07.421Z,31.40
2018-06-10T08:41:05.760Z,29.60
2018-06-10T08:43:35.089Z,30.90
2018-06-10T08:46:04.731Z,31.40
2018-06-10T08:48:33.991Z,31.80
2018-06-10T08:51:03.501Z,31.10
2018-06-10T08:53:33.071Z,28.40
2018-06-10T08:56:02.400Z,27.50
2018-06-10T08:58:31.838Z,27.00
2018-06-10T09:01:01.266Z,26.80
2018-06-10T09:03:31.293Z,26.50
2018-06-10T09:06:00.846Z,26.60
2018-06-10T09:08:30.482Z,27.60
2018-06-10T09:11:00.017Z,27.30
2018-06-10T09:13:29.518Z,26.40
2018-06-10T09:15:58.807Z,27.40
2018-06-10T09:18:28.488Z,28.80
2018-06-10T09:20:57.922Z,29.60
2018-06-10T09:23:29.558Z,28.40
2018-06-10T09:25:59.286Z,27.40
2018-06-10T09:28:28.534Z,27.50
2018-06-10T09:30:58.123Z,28.20
2018-06-10T09:33:27.843Z,27.10
2018-06-10T09:35:58.223Z,27.10
2018-06-10T09:38:27.925Z,27.80
2018-06-10T09:40:57.563Z,28.10
2018-06-10T09:43:27.215Z,28.20
2018-06-10T09:45:56.660Z,28.70
2018-06-10T09:48:26.269Z,28.20
2018-06-10T09:50:55.854Z,27.40
2018-06-10T09:53:25.434Z,26.80
2018-06-10T09:55:54.945Z,27.50
2018-06-10T09:58:24.327Z,27.70
2018-06-10T10:00:53.874Z,28.80
2018-06-10T10:03:24.371Z,30.30
2018-06-10T10:05:54.077Z,29.50
2018-06-10T10:10:52.538Z,28.70
2018-06-10T10:13:22.320Z,28.90
2018-06-10T10:15:53.756Z,30.80
2018-06-10T10:18:23.650Z,29.60
2018-06-10T10:20:53.745Z,30.80
2018-06-10T10:23:23.244Z,31.40
2018-06-10T10:25:52.823Z,28.80
2018-06-10T10:28:22.328Z,28.10
2018-06-10T10:30:51.886Z,28.00
2018-06-10T10:33:21.288Z,28.50
2018-06-10T10:35:51.584Z,29.50
2018-06-10T10:38:21.068Z,27.80
2018-06-10T10:40:50.644Z,27.40
2018-06-10T10:43:20.166Z,27.80
2018-06-10T10:45:49.493Z,29.00
2018-06-10T10:48:19.083Z,29.80
2018-06-10T10:50:48.912Z,29.90
2018-06-10T10:53:18.943Z,30.60
2018-06-10T10:55:48.473Z,31.60
2018-06-10T10:58:18.006Z,30.80
2018-06-10T11:00:47.429Z,30.10
2018-06-10T11:03:17.023Z,28.80
2018-06-10T11:05:46.457Z,28.00
2018-06-10T11:08:16.071Z,28.20
2018-06-10T11:10:45.514Z,28.60
2018-06-10T11:13:15.010Z,29.20
2018-06-10T11:15:44.600Z,29.10
2018-06-10T11:18:14.198Z,28.70
2018-06-10T11:20:43.757Z,29.00
2018-06-10T11:23:13.376Z,29.80
2018-06-10T11:25:42.984Z,29.80
2018-06-10T11:28:12.891Z,29.90
2018-06-10T11:30:42.429Z,29.70
2018-06-10T11:33:11.936Z,30.50
2018-06-10T11:35:41.542Z,30.40
2018-06-10T11:38:11.405Z,29.60
2018-06-10T11:40:40.994Z,28.70
2018-06-10T11:43:10.604Z,29.80
2018-06-10T11:45:40.311Z,31.10
2018-06-10T11:48:09.597Z,31.40
2018-06-10T11:50:39.492Z,30.60
2018-06-10T11:53:09.032Z,30.10
2018-06-10T11:55:38.648Z,29.40
2018-06-10T11:58:08.462Z,28.40
2018-06-10T12:00:38.073Z,28.10
2018-06-10T12:03:07.937Z,28.70
2018-06-10T12:05:37.510Z,30.00
2018-06-10T12:08:06.830Z,30.60
2018-06-10T12:10:36.066Z,29.50
2018-06-10T12:13:05.466Z,29.00
2018-06-10T12:15:35.132Z,27.80
2018-06-10T12:18:04.983Z,27.50
2018-06-10T12:20:34.614Z,27.60
2018-06-10T12:23:05.230Z,27.80
2018-06-10T12:25:34.984Z,27.60
2018-06-10T12:28:04.985Z,27.70
2018-06-10T12:30:34.833Z,27.60
2018-06-10T12:33:04.363Z,28.10
2018-06-10T12:35:33.465Z,28.10
2018-06-10T12:38:02.985Z,27.90
2018-06-10T12:40:32.787Z,28.10
2018-06-10T12:43:02.642Z,28.90
2018-06-10T12:45:32.807Z,30.10
2018-06-10T12:48:02.934Z,31.30
2018-06-10T12:50:32.569Z,31.60
2018-06-10T12:53:02.391Z,31.40
2018-06-10T12:55:32.137Z,30.30
2018-06-10T12:58:01.589Z,30.30
2018-06-10T13:00:30.997Z,29.80
2018-06-10T13:03:00.505Z,29.10
2018-06-10T13:05:30.043Z,28.40
2018-06-10T13:07:59.556Z,27.90
2018-06-10T13:10:29.020Z,27.70
2018-06-10T13:12:58.408Z,28.00
2018-06-10T13:15:28.305Z,29.00
2018-06-10T13:17:58.058Z,29.70
2018-06-10T13:22:56.710Z,30.30
2018-06-10T13:25:26.326Z,29.70
2018-06-10T13:27:55.720Z,29.20
2018-06-10T13:30:25.103Z,29.60
2018-06-10T13:32:54.468Z,30.60
2018-06-10T13:35:23.981Z,30.60
2018-06-10T13:37:53.819Z,30.10
2018-06-10T13:42:52.414Z,28.20
2018-06-10T13:45:21.879Z,28.60
2018-06-10T13:47:51.525Z,29.30
2018-06-10T13:50:21.819Z,29.00
2018-06-10T13:52:51.361Z,29.00
2018-06-10T13:55:20.871Z,28.90
2018-06-10T13:57:50.375Z,29.20
2018-06-10T14:00:20.110Z,29.60
2018-06-10T14:02:49.577Z,29.40
2018-06-10T14:05:19.182Z,29.10
2018-06-10T14:07:48.532Z,29.10
2018-06-10T14:10:18.129Z,30.00
2018-06-10T14:12:48.208Z,30.60
2018-06-10T14:15:18.347Z,30.50
2018-06-10T14:17:47.747Z,30.80
2018-06-10T14:20:17.094Z,30.50
2018-06-10T14:22:46.479Z,30.70
2018-06-10T14:25:16.000Z,30.70
2018-06-10T14:27:45.705Z,29.60
2018-06-10T14:30:15.266Z,28.80
2018-06-10T14:32:44.779Z,28.00
2018-06-10T14:35:14.288Z,27.70
2018-06-10T14:37:43.926Z,28.40
2018-06-10T14:40:13.595Z,28.80
2018-06-10T14:42:42.820Z,29.10
2018-06-10T14:45:12.525Z,28.30
2018-06-10T14:47:41.935Z,27.60
2018-06-10T14:50:11.586Z,27.40
2018-06-10T14:52:41.058Z,27.30
2018-06-10T14:55:10.646Z,27.20
2018-06-10T14:57:40.562Z,26.80
2018-06-10T15:00:10.359Z,26.90
2018-06-10T15:02:39.921Z,27.00
2018-06-10T15:05:09.268Z,27.00
2018-06-10T15:07:38.871Z,26.80
2018-06-10T15:10:08.415Z,27.10
2018-06-10T15:12:38.094Z,28.00
2018-06-10T15:15:07.858Z,28.20
2018-06-10T15:17:37.519Z,28.30
2018-06-10T15:20:06.979Z,28.40
2018-06-10T15:22:36.494Z,28.20
2018-06-10T15:25:05.986Z,28.40
2018-06-10T15:27:35.388Z,28.40
2018-06-10T15:30:05.543Z,28.70
2018-06-10T15:32:34.987Z,28.70
2018-06-10T15:35:04.757Z,28.30
2018-06-10T15:37:34.247Z,28.00
2018-06-10T15:40:03.795Z,28.00
2018-06-10T15:42:33.155Z,28.00
2018-06-10T15:45:02.731Z,27.90
2018-06-10T15:47:32.445Z,28.00
2018-06-10T15:50:01.953Z,28.10
2018-06-10T15:52:31.260Z,28.10
2018-06-10T15:55:00.657Z,28.10
2018-06-10T15:57:30.037Z,28.00
2018-06-10T15:59:59.287Z,27.90
2018-06-10T16:02:29.529Z,28.10
2018-06-10T16:04:59.099Z,27.70
2018-06-10T16:07:28.642Z,27.40
2018-06-10T16:09:58.686Z,27.40
2018-06-10T16:12:28.131Z,27.30
2018-06-10T16:14:57.603Z,27.30
2018-06-10T16:19:56.422Z,27.40
2018-06-10T16:22:25.940Z,27.40
2018-06-10T16:24:55.419Z,27.10
2018-06-10T16:27:24.945Z,26.80
2018-06-10T16:29:54.579Z,26.80
2018-06-10T16:32:24.262Z,26.60
2018-06-10T16:34:54.008Z,26.50
2018-06-10T16:37:23.584Z,26.50
2018-06-10T16:39:52.885Z,26.50
2018-06-10T16:42:22.124Z,26.70
2018-06-10T16:44:51.578Z,27.00
2018-06-10T16:47:21.412Z,27.20
2018-06-10T16:52:20.064Z,27.40
2018-06-10T16:54:49.604Z,27.40
2018-06-10T16:57:19.038Z,27.20
2018-06-10T16:59:48.612Z,27.10
2018-06-10T17:02:18.190Z,27.00
2018-06-10T17:04:47.582Z,26.90
2018-06-10T17:07:17.043Z,26.90
2018-06-10T17:09:46.318Z,26.90
2018-06-10T17:12:16.013Z,26.90
2018-06-10T17:14:45.523Z,26.90
2018-06-10T17:17:14.928Z,27.00
2018-06-10T17:19:44.810Z,26.90
2018-06-10T17:22:14.335Z,26.70
2018-06-10T17:24:44.230Z,26.70
2018-06-10T17:27:13.657Z,26.60
2018-06-10T17:29:43.496Z,26.70
2018-06-10T17:34:42.897Z,26.60
2018-06-10T17:37:12.578Z,26.50
2018-06-10T17:39:42.179Z,26.40
2018-06-10T17:42:11.787Z,26.50
2018-06-10T17:44:41.764Z,26.40
2018-06-10T17:47:11.399Z,26.30
2018-06-10T17:49:41.131Z,26.40
2018-06-10T17:54:40.093Z,26.20
2018-06-10T17:57:09.856Z,26.10
2018-06-10T17:59:39.502Z,26.10
2018-06-10T18:02:10.072Z,26.10
2018-06-10T18:04:39.768Z,26.00
2018-06-10T18:07:09.349Z,26.00
2018-06-10T18:09:39.083Z,25.90
2018-06-10T18:12:08.971Z,25.80
2018-06-10T18:14:38.922Z,25.70
2018-06-10T18:17:08.492Z,25.70
2018-06-10T18:19:37.965Z,25.60
2018-06-10T18:22:07.658Z,25.60
2018-06-10T18:24:37.195Z,25.50
2018-06-10T18:27:07.191Z,25.50
2018-06-10T18:29:37.007Z,25.50
2018-06-10T18:32:06.875Z,25.30
2018-06-10T18:34:36.817Z,25.10
2018-06-10T18:37:06.539Z,24.90
2018-06-10T18:39:36.184Z,24.70
2018-06-10T18:42:06.101Z,24.50
2018-06-10T18:44:35.664Z,24.40
2018-06-10T18:47:05.058Z,24.30
2018-06-10T18:49:35.283Z,24.10
2018-06-10T18:52:05.053Z,24.00
2018-06-10T18:54:34.629Z,23.80
2018-06-10T18:57:04.180Z,23.60
2018-06-10T18:59:33.683Z,23.50
2018-06-10T19:02:03.452Z,23.20
2018-06-10T19:04:33.214Z,23.00
2018-06-10T19:07:02.938Z,22.80
2018-06-10T19:09:32.700Z,22.50
2018-06-10T19:12:02.739Z,22.30
2018-06-10T19:14:32.884Z,22.00
2018-06-10T19:17:02.623Z,21.70
2018-06-10T19:19:32.492Z,21.50
2018-06-10T19:22:02.183Z,21.20
2018-06-10T19:24:31.839Z,21.10
2018-06-10T19:27:02.033Z,20.90
2018-06-10T19:29:32.223Z,20.60
2018-06-10T19:32:02.327Z,20.40
2018-06-10T19:34:31.849Z,20.20
2018-06-10T19:37:01.431Z,20.10
2018-06-10T19:39:31.095Z,20.00
2018-06-10T19:42:00.771Z,19.90
2018-06-10T19:44:30.657Z,19.70
2018-06-10T19:47:00.372Z,19.50
2018-06-10T19:49:30.460Z,19.50
2018-06-10T19:52:00.200Z,19.50
2018-06-10T19:54:30.130Z,19.40
2018-06-10T19:56:59.785Z,19.30
2018-06-10T19:59:29.481Z,19.20
2018-06-10T20:01:59.647Z,19.30
2018-06-10T20:04:29.902Z,19.20
2018-06-10T20:06:59.959Z,19.10
2018-06-10T20:09:29.823Z,19.10
2018-06-10T20:12:00.078Z,18.90
2018-06-10T20:14:29.824Z,18.80
2018-06-10T20:16:59.609Z,18.70
2018-06-10T20:19:29.263Z,18.60
2018-06-10T20:21:59.124Z,18.60
2018-06-10T20:24:28.971Z,18.60
2018-06-10T20:26:59.017Z,18.60
2018-06-10T20:29:28.969Z,18.60
2018-06-10T20:31:58.598Z,18.50
2018-06-10T20:34:28.642Z,18.50
2018-06-10T20:36:58.368Z,18.50
2018-06-10T20:39:28.186Z,18.40
2018-06-10T20:41:57.726Z,18.50
2018-06-10T20:44:26.983Z,18.50
2018-06-10T20:46:56.785Z,18.50
2018-06-10T20:49:26.220Z,18.50
2018-06-10T20:51:55.768Z,18.50
2018-06-10T20:54:25.511Z,18.50
2018-06-10T20:56:55.131Z,18.50
2018-06-10T20:59:24.477Z,18.60
2018-06-10T21:01:53.848Z,18.60
2018-06-10T21:04:23.227Z,18.60
2018-06-10T21:06:52.645Z,18.60
2018-06-10T21:09:22.835Z,18.60
2018-06-10T21:11:52.424Z,18.60
2018-06-10T21:14:21.925Z,18.50
2018-06-10T21:16:51.352Z,18.60
2018-06-10T21:19:20.806Z,18.60
2018-06-10T21:21:50.139Z,18.50
2018-06-10T21:24:19.698Z,18.40
2018-06-10T21:26:49.037Z,18.30
2018-06-10T21:29:18.455Z,18.20
2018-06-10T21:31:47.840Z,18.10
2018-06-10T21:34:17.423Z,18.20
2018-06-10T21:36:46.644Z,18.20
2018-06-10T21:39:16.290Z,18.20
2018-06-10T21:41:45.816Z,18.20
2018-06-10T21:44:15.312Z,18.10
2018-06-10T21:46:44.663Z,18.00
2018-06-10T21:49:14.087Z,18.00
2018-06-10T21:51:43.685Z,17.90
2018-06-10T21:54:13.146Z,17.80
2018-06-10T21:56:42.336Z,17.80
2018-06-10T21:59:11.727Z,17.80
2018-06-10T22:01:41.032Z,17.80
2018-06-10T22:04:10.381Z,17.80
2018-06-10T22:06:39.933Z,17.80
2018-06-10T22:11:38.414Z,17.80
2018-06-10T22:14:07.939Z,17.80
2018-06-10T22:16:37.409Z,18.00
2018-06-10T22:19:06.700Z,18.00
2018-06-10T22:21:36.359Z,17.90
2018-06-10T22:24:06.541Z,17.90
2018-06-10T22:26:36.465Z,17.70
2018-06-10T22:29:06.024Z,17.60
2018-06-10T22:31:35.143Z,17.40
2018-06-10T22:34:04.773Z,17.30
2018-06-10T22:36:34.544Z,17.20
2018-06-10T22:39:04.226Z,17.10
2018-06-10T22:44:02.711Z,17.10
2018-06-10T22:46:32.541Z,17.20
2018-06-10T22:49:02.652Z,17.30
2018-06-10T22:51:32.125Z,17.20
2018-06-10T22:54:12.301Z,17.20
2018-06-10T22:56:41.866Z,17.10
2018-06-10T22:59:11.603Z,16.90
2018-06-10T23:01:41.138Z,16.80
2018-06-10T23:04:10.528Z,16.80
2018-06-10T23:07:11.368Z,16.80
2018-06-10T23:09:40.935Z,16.80
2018-06-10T23:12:10.427Z,16.80
2018-06-10T23:14:39.990Z,16.90
2018-06-10T23:17:09.391Z,16.90
2018-06-10T23:19:38.606Z,16.90
2018-06-10T23:22:08.141Z,16.90
2018-06-10T23:24:37.865Z,16.80
2018-06-10T23:27:07.467Z,16.70
2018-06-10T23:29:36.902Z,16.70
2018-06-10T23:32:06.383Z,16.60
2018-06-10T23:34:35.491Z,16.60
2018-06-10T23:37:04.614Z,16.60
2018-06-10T23:39:33.878Z,16.60
2018-06-10T23:42:03.227Z,16.50
2018-06-10T23:44:32.767Z,16.60
2018-06-10T23:47:02.261Z,16.60
2018-06-10T23:49:31.842Z,16.50
2018-06-10T23:52:01.390Z,16.50
2018-06-10T23:54:30.877Z,16.50
2018-06-10T23:57:00.353Z,16.50
2018-06-10T23:59:30.156Z,16.60
